Time;durP1;ratioP1;P1;durP2;ratioP2;P2;SDS_P1;SDS_P2;PMS_P1;PMS_P2;Temp;Humidity;BMP_temperature;BMP_pressure;BME280_temperature;BME280_humidity;BME280_pressure;Samples;Min_cycle;Max_cycle;Signal;HPM_P1;HPM_P2
2022/07/29 00:00:15;;;;;;;3.95;3.05;;;;;;;20.50;38.43;100995.25;845659;23;1292;-96
2022/07/29 00:00:38;;;;;;;3.63;3.05;;;;;;;20.61;38.51;101008.41;853336;23;1211;-96
2022/07/29 00:00:59;;;;;;;3.17;2.83;;;;;;;20.60;38.55;101001.31;857410;23;1374;-96
2022/07/29 00:01:20;;;;;;;3.60;2.65;;;;;;;20.49;38.67;100982.88;844839;23;1516;-96
2022/07/29 00:01:43;;;;;;;3.70;2.50;;;;;;;20.48;38.66;100988.19;857385;23;1336;-96
2022/07/29 00:02:04;;;;;;;3.88;2.45;;;;;;;20.48;38.60;100986.41;857708;23;1423;-96
2022/07/29 00:02:28;;;;;;;5.15;2.67;;;;;;;20.49;38.69;100996.16;853153;23;1458;-96
2022/07/29 00:02:51;;;;;;;5.70;2.90;;;;;;;20.46;38.70;100987.34;849362;23;1595;-96
2022/07/29 00:03:13;;;;;;;4.50;3.13;;;;;;;20.45;38.67;100986.44;857150;23;1197;-96
2022/07/29 00:03:36;;;;;;;3.90;2.80;;;;;;;20.46;38.76;100996.16;853360;23;1200;-96
2022/07/29 00:03:58;;;;;;;4.20;2.63;;;;;;;20.50;38.89;100992.59;849245;23;881;-96
2022/07/29 00:04:22;;;;;;;6.15;2.58;;;;;;;20.51;38.50;101002.31;852575;23;1280;-95
2022/07/29 00:04:43;;;;;;;5.68;2.50;;;;;;;20.44;38.70;100987.34;853394;23;1277;-95
2022/07/29 00:05:05;;;;;;;5.15;2.65;;;;;;;20.51;38.79;100993.47;845092;23;1153;-96
2022/07/29 00:05:27;;;;;;;7.05;2.83;;;;;;;20.48;38.75;100990.84;852541;23;1199;-96
2022/07/29 00:05:57;;;;;;;5.63;2.90;;;;;;;20.39;38.69;100981.19;852213;23;1356;-95
2022/07/29 00:06:20;;;;;;;3.22;2.88;;;;;;;20.44;38.82;100995.31;848348;23;1233;-96
2022/07/29 00:06:41;;;;;;;4.35;3.10;;;;;;;20.46;38.77;100987.34;857582;23;1337;-96
2022/07/29 00:07:04;;;;;;;6.20;3.20;;;;;;;20.50;38.94;100994.34;857405;23;1330;-95
2022/07/29 00:07:26;;;;;;;5.40;2.92;;;;;;;20.51;38.76;100990.81;849439;23;1207;-96
2022/07/29 00:07:48;;;;;;;4.15;3.05;;;;;;;20.43;38.74;100985.59;841171;23;1408;-95
2022/07/29 00:08:09;;;;;;;4.22;3.30;;;;;;;20.44;38.56;100984.69;853094;23;1382;-95
2022/07/29 00:08:29;;;;;;;4.55;3.50;;;;;;;20.47;38.82;100989.09;857334;23;1268;-96
2022/07/29 00:08:51;;;;;;;4.50;3.40;;;;;;;20.47;38.58;100984.66;853388;23;1155;-95
2022/07/29 00:09:14;;;;;;;4.60;3.13;;;;;;;20.47;38.56;100991.75;857210;23;1173;-96
2022/07/29 00:09:40;;;;;;;5.20;2.90;;;;;;;20.43;38.56;100975.00;857829;23;1159;-96
2022/07/29 00:10:06;;;;;;;5.47;2.90;;;;;;;20.46;38.70;100993.50;853533;23;1246;-95
2022/07/29 00:10:28;;;;;;;5.60;2.97;;;;;;;20.50;38.58;100995.25;849330;23;1257;-96
2022/07/29 00:10:49;;;;;;;3.83;2.80;;;;;;;20.51;38.79;100997.00;844565;23;1168;-96
2022/07/29 00:11:12;;;;;;;2.92;2.60;;;;;;;20.46;38.76;100987.34;853324;23;1119;-96
2022/07/29 00:11:33;;;;;;;4.93;3.03;;;;;;;20.44;38.85;100983.81;857943;23;1328;-96
2022/07/29 00:12:07;;;;;;;7.18;3.42;;;;;;;20.46;38.81;100984.69;857608;23;1942;-96
2022/07/29 00:12:33;;;;;;;6.15;3.10;;;;;;;20.40;38.82;100980.31;845287;23;1083;-96
2022/07/29 00:12:53;;;;;;;4.47;3.00;;;;;;;20.45;38.93;100985.56;849401;23;1353;-96
2022/07/29 00:13:14;;;;;;;5.50;3.03;;;;;;;20.39;38.92;100973.25;857620;23;1253;-96
2022/07/29 00:13:38;;;;;;;6.65;3.20;;;;;;;20.45;39.02;100981.16;849577;23;1233;-96
2022/07/29 00:13:59;;;;;;;5.80;3.00;;;;;;;20.39;38.70;100970.59;856299;23;1358;-96
2022/07/29 00:14:27;;;;;;;7.93;3.28;;;;;;;20.38;38.75;100979.44;857407;23;1353;-96
2022/07/29 00:14:48;;;;;;;5.90;3.10;;;;;;;20.46;38.84;100987.34;852777;23;1272;-96
2022/07/29 00:15:09;;;;;;;4.47;2.90;;;;;;;20.39;38.97;100981.19;857655;23;1246;-96
2022/07/29 00:15:32;;;;;;;6.25;3.00;;;;;;;20.39;38.92;100982.09;854118;23;1296;-95
2022/07/29 00:15:54;;;;;;;7.55;3.10;;;;;;;20.34;38.94;100969.78;854255;23;1253;-96
2022/07/29 00:16:18;;;;;;;7.85;3.60;;;;;;;20.39;38.77;100976.78;850839;23;1235;-96
2022/07/29 00:16:39;;;;;;;5.43;3.30;;;;;;;20.36;38.83;100970.66;850573;23;1263;-96
2022/07/29 00:17:00;;;;;;;6.32;3.33;;;;;;;20.45;39.01;100991.75;855096;23;1113;-96
2022/07/29 00:17:21;;;;;;;5.72;2.90;;;;;;;20.35;38.88;100979.50;850505;23;1145;-95
2022/07/29 00:17:42;;;;;;;6.45;3.25;;;;;;;20.43;38.86;100990.91;855308;23;1266;-95
2022/07/29 00:18:03;;;;;;;6.28;3.25;;;;;;;20.36;39.05;100978.59;846365;23;1172;-96
2022/07/29 00:18:27;;;;;;;6.97;3.30;;;;;;;20.41;39.00;100982.09;854754;23;1298;-96
2022/07/29 00:18:50;;;;;;;5.47;3.00;;;;;;;20.41;38.85;100982.09;854879;23;1231;-96
2022/07/29 00:19:10;;;;;;;4.80;2.88;;;;;;;20.36;39.01;100975.94;850699;23;1147;-96
2022/07/29 00:19:34;;;;;;;3.80;2.92;;;;;;;20.43;39.09;100988.25;855032;23;1185;-95
2022/07/29 00:23:23;;;;;;;8.57;3.47;;;;;;;20.46;39.03;100993.50;862866;23;1726;-95
2022/07/29 00:23:49;;;;;;;5.25;3.42;;;;;;;20.40;38.76;100978.53;859975;23;1487;-93
2022/07/29 00:24:10;;;;;;;4.60;3.00;;;;;;;20.43;38.80;100992.66;852409;23;1570;-96
2022/07/29 00:24:32;;;;;;;4.13;3.00;;;;;;;20.41;39.08;100984.75;848542;23;1209;-96
2022/07/29 00:24:56;;;;;;;6.15;3.03;;;;;;;20.46;39.11;100982.91;852626;23;1081;-95
2022/07/29 00:25:17;;;;;;;5.50;2.78;;;;;;;20.43;39.05;100982.94;850528;23;1335;-96
2022/07/29 00:25:38;;;;;;;5.32;2.80;;;;;;;20.41;39.04;100984.75;857507;23;1116;-96
2022/07/29 00:26:01;;;;;;;3.70;2.88;;;;;;;20.42;39.18;100986.50;853011;23;1387;-96
2022/07/29 00:26:23;;;;;;;4.50;3.20;;;;;;;20.38;39.15;100966.19;853073;23;1287;-96
2022/07/29 00:26:44;;;;;;;4.35;2.88;;;;;;;20.38;39.14;100976.78;853030;23;1183;-95
2022/07/29 00:27:05;;;;;;;4.63;2.75;;;;;;;20.35;39.12;100974.19;852995;23;1314;-96
2022/07/29 00:27:26;;;;;;;5.63;2.83;;;;;;;20.41;39.00;100985.59;848572;23;1328;-96
2022/07/29 00:27:50;;;;;;;6.30;2.90;;;;;;;20.37;39.05;100973.28;848977;23;1299;-96
2022/07/29 00:28:13;;;;;;;5.55;3.00;;;;;;;20.45;38.99;100988.22;844997;23;1128;-94
2022/07/29 00:28:34;;;;;;;5.40;2.80;;;;;;;20.36;38.88;100970.66;861871;23;1131;-96
2022/07/29 00:28:55;;;;;;;4.95;2.78;;;;;;;20.47;38.96;100995.25;857394;23;1345;-96
2022/07/29 00:29:16;;;;;;;4.47;2.50;;;;;;;20.41;39.00;100984.75;853259;23;1262;-95
2022/07/29 00:29:37;;;;;;;3.78;2.67;;;;;;;20.40;38.95;100983.84;848925;23;1330;-96
2022/07/29 00:30:00;;;;;;;3.47;2.60;;;;;;;20.35;39.07;100968.88;852619;23;1144;-95
2022/07/29 00:30:21;;;;;;;3.95;2.67;;;;;;;20.39;39.10;100971.50;845616;23;1114;-95
2022/07/29 00:30:43;;;;;;;4.20;2.50;;;;;;;20.36;39.03;100970.66;853866;23;1265;-96
2022/07/29 00:31:04;;;;;;;4.30;2.60;;;;;;;20.38;39.08;100975.03;853968;23;1206;-96
2022/07/29 00:31:25;;;;;;;5.50;2.60;;;;;;;20.34;39.23;100965.34;853716;23;1152;-96
2022/07/29 00:31:46;;;;;;;5.80;3.00;;;;;;;20.34;39.04;100967.13;857847;23;1929;-95
2022/07/29 00:32:06;;;;;;;7.67;2.93;;;;;;;20.36;38.98;100970.66;845016;23;1303;-94
2022/07/29 00:32:27;;;;;;;6.00;2.90;;;;;;;20.38;39.10;100963.53;845172;23;1329;-96
2022/07/29 00:32:51;;;;;;;5.47;2.80;;;;;;;20.41;39.15;100974.13;849628;23;1226;-96
2022/07/29 00:33:12;;;;;;;4.97;3.00;;;;;;;20.41;38.94;100974.13;854123;23;1383;-95
2022/07/29 00:33:35;;;;;;;5.95;3.03;;;;;;;20.46;39.21;100979.38;854478;23;1091;-95
2022/07/29 00:33:56;;;;;;;5.80;2.90;;;;;;;20.39;39.14;100967.94;855766;23;1343;-94
2022/07/29 00:35:44;;;;;;;3.25;2.60;;;;;;;20.36;39.18;100960.03;852896;23;1337;-96
2022/07/29 00:36:08;;;;;;;4.28;2.67;;;;;;;20.41;39.13;100969.69;849439;23;1256;-96
2022/07/29 00:36:29;;;;;;;4.50;2.70;;;;;;;20.31;39.27;100960.09;853245;23;1150;-96
2022/07/29 00:36:50;;;;;;;6.05;2.83;;;;;;;20.37;39.36;100968.00;857725;23;1123;-96
2022/07/29 00:37:14;;;;;;;9.05;2.75;;;;;;;20.33;39.29;100965.34;853191;23;1280;-96
2022/07/29 00:37:37;;;;;;;8.88;3.03;;;;;;;20.32;39.40;100959.19;849268;23;1334;-95
2022/07/29 00:38:01;;;;;;;6.13;3.00;;;;;;;20.32;39.12;100953.91;841040;23;1185;-96
2022/07/29 00:38:24;;;;;;;3.35;2.90;;;;;;;20.37;39.40;100961.78;844585;23;1378;-96
2022/07/29 00:38:45;;;;;;;3.22;2.70;;;;;;;20.32;39.23;100958.31;854148;23;1226;-96
2022/07/29 00:39:12;;;;;;;4.10;2.65;;;;;;;20.37;39.29;100968.00;853837;23;1209;-96
2022/07/29 00:39:44;;;;;;;5.07;2.75;;;;;;;20.36;39.14;100968.00;849698;23;1317;-96
2022/07/29 00:40:08;;;;;;;5.80;3.10;;;;;;;20.41;39.28;100969.69;857312;23;1236;-95
2022/07/29 00:40:29;;;;;;;6.57;3.17;;;;;;;20.37;39.28;100959.16;848832;23;1261;-95
2022/07/29 00:40:50;;;;;;;5.25;2.90;;;;;;;20.33;39.34;100954.75;852335;23;1402;-96
2022/07/29 00:41:15;;;;;;;5.07;2.72;;;;;;;20.31;39.51;100960.09;852836;23;1224;-96
2022/07/29 00:41:36;;;;;;;4.63;2.80;;;;;;;20.32;39.40;100947.69;857350;23;1340;-95
2022/07/29 00:42:02;;;;;;;5.22;2.90;;;;;;;20.32;39.39;100951.25;853345;23;1286;-96
2022/07/29 00:42:25;;;;;;;6.45;3.40;;;;;;;20.36;39.42;100960.03;857042;23;1283;-95
2022/07/29 00:42:47;;;;;;;5.75;3.28;;;;;;;20.31;39.24;100952.13;850428;23;1298;-96
2022/07/29 00:43:08;;;;;;;4.80;3.00;;;;;;;20.38;39.36;100960.91;861954;23;1302;-96
2022/07/29 00:43:30;;;;;;;3.35;2.75;;;;;;;20.35;39.40;100953.00;861709;23;1170;-96
2022/07/29 00:43:51;;;;;;;3.67;2.63;;;;;;;20.35;39.33;100947.69;849257;23;1372;-95
2022/07/29 00:44:12;;;;;;;4.40;2.90;;;;;;;20.43;39.35;100975.00;856634;23;1139;-96
2022/07/29 00:44:40;;;;;;;4.27;2.90;;;;;;;20.31;39.45;100946.84;845094;23;1334;-96
2022/07/29 00:45:00;;;;;;;5.35;3.00;;;;;;;20.33;39.50;100950.34;861432;23;1229;-96
2022/07/29 00:45:22;;;;;;;6.82;3.00;;;;;;;20.40;39.40;100967.06;849095;23;1228;-96
2022/07/29 00:45:44;;;;;;;5.32;2.95;;;;;;;20.40;39.35;100967.06;841054;23;1419;-96
2022/07/29 00:46:04;;;;;;;4.20;2.78;;;;;;;20.37;39.45;100957.38;848951;23;1250;-95
2022/07/29 00:46:28;;;;;;;4.13;2.78;;;;;;;20.39;39.42;100963.53;853415;23;1153;-96
2022/07/29 00:46:49;;;;;;;4.78;2.90;;;;;;;20.33;39.30;100947.69;853438;23;1206;-96
2022/07/29 00:47:13;;;;;;;3.50;3.00;;;;;;;20.33;39.34;100945.03;853302;23;1403;-96
2022/07/29 00:47:35;;;;;;;4.82;3.10;;;;;;;20.33;39.47;100945.03;853083;23;1407;-95
2022/07/29 00:47:56;;;;;;;4.27;2.93;;;;;;;20.32;39.46;100945.06;853108;23;1270;-96
2022/07/29 00:48:22;;;;;;;4.85;2.88;;;;;;;20.31;39.23;100943.31;853054;23;1239;-95
2022/07/29 00:48:44;;;;;;;4.70;2.92;;;;;;;20.32;39.40;100951.25;849064;23;1315;-96
2022/07/29 00:49:07;;;;;;;4.22;2.80;;;;;;;20.36;39.26;100955.59;844706;23;1274;-96
2022/07/29 00:49:33;;;;;;;4.18;2.70;;;;;;;20.33;39.41;100954.75;849106;23;1316;-96
2022/07/29 00:49:57;;;;;;;4.53;2.80;;;;;;;20.25;39.42;100942.50;856336;23;1369;-96
2022/07/29 00:50:19;;;;;;;4.40;2.90;;;;;;;20.28;39.57;100953.03;852666;23;1268;-96
2022/07/29 00:50:41;;;;;;;6.60;3.03;;;;;;;20.28;39.81;100939.78;857166;23;1406;-95
2022/07/29 00:51:03;;;;;;;5.93;2.90;;;;;;;20.29;39.69;100943.34;857341;23;1255;-96
2022/07/29 00:51:28;;;;;;;6.00;3.03;;;;;;;20.21;39.64;100935.44;853067;23;1303;-96
2022/07/29 00:51:52;;;;;;;6.63;2.90;;;;;;;20.20;39.57;100932.81;857201;23;1902;-96
2022/07/29 00:52:18;;;;;;;6.30;3.10;;;;;;;20.26;39.79;100946.88;853224;23;1369;-96
2022/07/29 00:52:42;;;;;;;4.32;2.90;;;;;;;20.20;39.68;100935.44;849370;23;1389;-96
2022/07/29 00:53:06;;;;;;;3.78;2.88;;;;;;;20.22;39.61;100942.50;857461;23;1390;-96
2022/07/29 00:53:27;;;;;;;4.75;2.75;;;;;;;20.31;39.70;100951.25;857278;23;1340;-96
2022/07/29 00:53:50;;;;;;;6.38;2.97;;;;;;;20.18;39.76;100935.50;857285;23;1453;-96
2022/07/29 00:54:12;;;;;;;6.50;3.03;;;;;;;20.18;39.79;100934.59;853124;23;1201;-96
2022/07/29 00:54:34;;;;;;;6.90;3.63;;;;;;;20.18;39.88;100935.50;850020;23;1337;-96
2022/07/29 00:54:56;;;;;;;5.10;3.50;;;;;;;20.23;39.60;100943.38;857258;23;1493;-96
2022/07/29 00:55:17;;;;;;;5.40;3.20;;;;;;;20.17;39.74;100932.84;860949;23;1497;-96
2022/07/29 00:55:38;;;;;;;5.30;2.70;;;;;;;20.26;39.93;100949.53;853155;23;1143;-96
2022/07/29 00:55:59;;;;;;;6.80;2.95;;;;;;;20.21;39.85;100940.75;857204;23;1218;-96
2022/07/29 00:56:20;;;;;;;5.97;3.10;;;;;;;20.20;39.76;100939.00;853021;23;1238;-96
2022/07/29 00:56:41;;;;;;;3.90;2.70;;;;;;;20.19;39.80;100937.25;861281;22;1422;-96
2022/07/29 00:57:02;;;;;;;2.90;2.60;;;;;;;20.20;39.82;100928.41;857219;23;1104;-96
2022/07/29 00:57:25;;;;;;;4.05;2.80;;;;;;;20.22;40.02;100942.50;844800;23;1285;-96
2022/07/29 00:57:50;;;;;;;4.82;3.05;;;;;;;20.21;39.86;100934.56;849320;23;788;-96
2022/07/29 00:58:13;;;;;;;6.65;3.30;;;;;;;20.15;39.93;100924.91;853024;23;1250;-96
2022/07/29 00:58:34;;;;;;;6.75;2.92;;;;;;;20.14;40.02;100931.09;841675;23;1251;-96
2022/07/29 00:58:56;;;;;;;6.65;2.70;;;;;;;20.19;39.96;100934.59;848894;23;1093;-95
2022/07/29 00:59:20;;;;;;;3.95;2.55;;;;;;;20.17;39.84;100932.84;857246;23;1357;-95
2022/07/29 00:59:41;;;;;;;4.47;2.90;;;;;;;20.12;40.08;100927.59;849390;23;1457;-95
2022/07/29 01:00:07;;;;;;;4.57;2.80;;;;;;;20.11;39.98;100923.19;845287;23;1245;-95
2022/07/29 01:00:30;;;;;;;4.43;2.70;;;;;;;20.14;39.96;100933.75;849314;23;1408;-96
2022/07/29 01:00:54;;;;;;;3.83;2.80;;;;;;;20.18;39.97;100939.91;857603;23;1277;-95
2022/07/29 01:01:18;;;;;;;4.22;3.28;;;;;;;20.11;39.82;100929.34;857313;23;1212;-95
2022/07/29 01:01:44;;;;;;;4.80;3.20;;;;;;;20.12;40.11;100930.25;857594;23;1155;-95
2022/07/29 01:02:05;;;;;;;3.83;2.75;;;;;;;20.08;39.88;100918.78;852354;23;1331;-95
2022/07/29 01:02:26;;;;;;;4.32;2.65;;;;;;;20.14;39.99;100931.09;853386;23;1283;-95
2022/07/29 01:02:51;;;;;;;4.65;2.90;;;;;;;20.05;40.01;100918.84;856354;23;1307;-95
2022/07/29 01:03:12;;;;;;;5.60;3.03;;;;;;;20.13;40.12;100932.88;857243;23;1273;-95
2022/07/29 01:03:35;;;;;;;7.30;3.00;;;;;;;20.07;40.02;100922.34;849002;23;1394;-95
2022/07/29 01:03:56;;;;;;;8.40;3.42;;;;;;;20.05;40.13;100913.53;849193;23;1296;-95
2022/07/29 01:04:21;;;;;;;10.30;3.50;;;;;;;20.02;40.18;100924.13;853136;23;1231;-95
2022/07/29 01:04:44;;;;;;;7.35;3.10;;;;;;;20.05;40.06;100915.28;853217;23;1182;-95
2022/07/29 01:05:07;;;;;;;5.97;2.65;;;;;;;20.11;40.15;100933.78;853093;23;1393;-96
2022/07/29 01:05:31;;;;;;;3.20;2.60;;;;;;;20.07;40.19;100922.34;844949;23;1198;-96
2022/07/29 01:05:55;;;;;;;3.30;2.60;;;;;;;20.07;40.09;100924.09;849144;23;1200;-95
2022/07/29 01:06:20;;;;;;;3.63;2.65;;;;;;;20.00;40.29;100916.19;856013;23;1487;-95
2022/07/29 01:06:42;;;;;;;4.35;2.75;;;;;;;20.08;40.11;100923.19;845389;23;862;-95
2022/07/29 01:07:04;;;;;;;5.50;2.97;;;;;;;20.08;40.15;100923.19;852674;23;1224;-94
2022/07/29 01:07:27;;;;;;;8.88;3.03;;;;;;;20.05;40.14;100923.25;869577;22;1335;-95
2022/07/29 01:07:50;;;;;;;7.95;2.90;;;;;;;20.00;40.15;100916.19;853184;23;1291;-95
2022/07/29 01:08:15;;;;;;;5.00;2.80;;;;;;;19.98;40.04;100910.03;849035;23;1351;-96
2022/07/29 01:08:37;;;;;;;3.20;2.60;;;;;;;19.98;40.05;100918.00;857399;23;1430;-94
2022/07/29 01:08:58;;;;;;;3.20;2.53;;;;;;;20.08;40.11;100928.50;861519;23;1300;-96
2022/07/29 01:09:23;;;;;;;3.92;2.60;;;;;;;20.06;40.09;100932.94;852992;23;1381;-95
2022/07/29 01:09:46;;;;;;;4.18;3.00;;;;;;;19.97;39.97;100910.94;853163;23;1288;-95
2022/07/29 01:10:09;;;;;;;8.30;3.05;;;;;;;19.96;40.12;100914.50;853337;23;1376;-94
2022/07/29 01:10:31;;;;;;;9.15;3.17;;;;;;;19.98;40.03;100917.13;849083;23;1282;-95
2022/07/29 01:10:54;;;;;;;9.05;2.90;;;;;;;19.95;40.14;100910.09;857637;23;1180;-96
2022/07/29 01:11:19;;;;;;;5.10;2.65;;;;;;;19.95;40.16;100912.72;856936;23;1139;-94
2022/07/29 01:11:43;;;;;;;3.63;2.50;;;;;;;19.98;40.21;100914.47;849282;23;1305;-95
2022/07/29 01:12:08;;;;;;;3.50;2.55;;;;;;;19.94;40.37;100913.63;857475;23;1899;-96
2022/07/29 01:12:33;;;;;;;3.35;2.60;;;;;;;19.93;40.42;100905.69;856996;23;1561;-95
2022/07/29 01:12:58;;;;;;;3.92;2.50;;;;;;;19.92;40.28;100915.38;857130;23;1206;-95
2022/07/29 01:13:22;;;;;;;4.70;2.50;;;;;;;19.93;40.33;100914.53;857253;23;1288;-95
2022/07/29 01:13:45;;;;;;;4.60;2.50;;;;;;;19.99;40.20;100924.19;853048;23;1244;-96
2022/07/29 01:14:08;;;;;;;3.85;2.58;;;;;;;19.94;40.10;100920.69;849005;23;1223;-94
2022/07/29 01:14:29;;;;;;;4.97;2.65;;;;;;;19.96;40.28;100916.25;848947;23;1105;-96
2022/07/29 01:14:55;;;;;;;5.10;2.80;;;;;;;19.88;40.45;100905.72;853251;23;1121;-95
2022/07/29 01:15:23;;;;;;;5.77;2.83;;;;;;;19.88;40.40;100903.09;848952;23;1215;-95
2022/07/29 01:15:56;;;;;;;5.20;2.78;;;;;;;19.88;40.51;100905.72;853067;23;1159;-95
2022/07/29 01:16:30;;;;;;;5.22;2.80;;;;;;;19.86;40.62;100902.19;857314;23;1265;-96
2022/07/29 01:17:12;;;;;;;4.88;2.80;;;;;;;19.88;40.60;100905.72;849268;23;1393;-95
2022/07/29 01:18:00;;;;;;;5.65;2.63;;;;;;;19.83;40.65;100896.91;849331;23;1291;-95
2022/07/29 01:18:30;;;;;;;3.35;2.40;;;;;;;19.81;40.62;100893.41;857141;23;1420;-96
2022/07/29 01:18:57;;;;;;;5.88;2.80;;;;;;;19.83;40.67;100903.09;852765;23;1232;-95
2022/07/29 01:19:36;;;;;;;5.60;2.88;;;;;;;19.92;40.63;100912.75;848688;23;1333;-95
2022/07/29 01:20:15;;;;;;;4.22;2.88;;;;;;;19.92;40.72;100906.59;848896;23;1359;-95
2022/07/29 01:20:48;;;;;;;3.35;2.70;;;;;;;19.92;40.67;100914.53;853189;23;1359;-95
2022/07/29 01:21:19;;;;;;;3.45;2.53;;;;;;;19.87;40.67;100915.41;853475;23;1233;-96
2022/07/29 01:21:52;;;;;;;3.53;2.50;;;;;;;19.90;40.72;100911.88;852126;23;1353;-95
2022/07/29 01:22:33;;;;;;;2.90;2.40;;;;;;;19.85;40.76;100905.72;855781;23;1283;-95
2022/07/29 01:23:18;;;;;;;2.80;2.40;;;;;;;19.87;40.63;100917.19;855960;23;1211;-96
2022/07/29 01:23:51;;;;;;;4.63;2.70;;;;;;;19.87;40.59;100909.25;856050;23;1190;-95
2022/07/29 01:24:45;;;;;;;4.80;2.80;;;;;;;19.84;40.83;100909.25;855975;23;1181;-95
2022/07/29 01:25:17;;;;;;;4.47;2.75;;;;;;;19.85;40.89;100905.72;855792;23;1365;-96
2022/07/29 01:26:04;;;;;;;3.70;2.50;;;;;;;19.81;40.86;100909.28;864654;22;1246;-96
2022/07/29 01:27:11;;;;;;;5.20;2.63;;;;;;;19.78;40.68;100899.59;852121;23;1204;-95
2022/07/29 01:28:09;;;;;;;7.22;2.90;;;;;;;19.78;40.96;100898.75;836041;23;1439;-95
2022/07/29 01:28:49;;;;;;;4.70;2.80;;;;;;;19.83;40.98;100908.38;852087;23;1192;-95
2022/07/29 01:29:22;;;;;;;4.32;2.88;;;;;;;19.79;40.83;100900.50;856011;23;1271;-96
2022/07/29 01:29:52;;;;;;;4.00;2.70;;;;;;;19.72;40.88;100892.59;859974;23;1330;-95
2022/07/29 01:30:16;;;;;;;6.45;2.97;;;;;;;19.76;41.14;100900.50;852111;23;1298;-96
2022/07/29 01:30:41;;;;;;;5.63;3.10;;;;;;;19.69;41.15;100892.63;847912;23;1329;-96
2022/07/29 01:31:04;;;;;;;4.50;3.08;;;;;;;19.72;40.99;100899.63;852390;23;1363;-95
2022/07/29 01:31:51;;;;;;;4.28;2.83;;;;;;;19.76;40.86;100905.78;860856;23;1359;-96
2022/07/29 01:32:15;;;;;;;3.70;2.60;;;;;;;19.78;40.94;100909.31;855943;23;1292;-95
2022/07/29 01:32:38;;;;;;;3.03;2.40;;;;;;;19.77;40.79;100915.47;860709;23;1219;-95
2022/07/29 01:33:05;;;;;;;3.10;2.28;;;;;;;19.69;40.79;100899.69;860538;23;1242;-96
2022/07/29 01:34:11;;;;;;;4.38;3.25;;;;;;;19.73;40.93;100910.22;856338;23;1160;-96
2022/07/29 01:34:46;;;;;;;4.45;3.25;;;;;;;19.72;40.90;100907.59;852311;23;1089;-95
2022/07/29 01:35:35;;;;;;;6.35;2.90;;;;;;;19.78;40.94;100915.47;860545;23;1137;-95
2022/07/29 01:36:07;;;;;;;8.30;3.00;;;;;;;19.77;40.81;100910.19;860517;23;1331;-95
2022/07/29 01:36:37;;;;;;;8.20;3.30;;;;;;;19.65;40.88;100893.53;848353;23;1281;-95
2022/07/29 01:37:14;;;;;;;5.10;2.90;;;;;;;19.77;40.98;100913.72;852112;23;1492;-95
2022/07/29 01:37:42;;;;;;;4.78;2.38;;;;;;;19.78;41.13;100914.63;856464;23;1327;-96
2022/07/29 01:38:13;;;;;;;5.43;2.40;;;;;;;19.77;41.14;100912.84;860208;23;1329;-95
2022/07/29 01:38:38;;;;;;;5.53;2.80;;;;;;;19.65;41.14;100890.88;852480;23;1274;-95
2022/07/29 01:39:12;;;;;;;5.50;2.80;;;;;;;19.66;41.20;100895.28;852126;23;1271;-94
2022/07/29 01:39:36;;;;;;;4.45;2.65;;;;;;;19.65;41.30;100898.81;860588;23;1212;-95
2022/07/29 01:40:01;;;;;;;4.78;2.75;;;;;;;19.75;41.28;100910.22;856538;23;1200;-94
2022/07/29 01:40:29;;;;;;;5.85;2.90;;;;;;;19.71;41.55;100904.06;856283;23;1394;-95
2022/07/29 01:41:01;;;;;;;5.60;2.50;;;;;;;19.71;41.36;100901.44;860566;23;1382;-95
2022/07/29 01:41:22;;;;;;;4.88;2.40;;;;;;;19.65;41.40;100893.53;852364;23;1227;-96
2022/07/29 01:42:21;;;;;;;4.55;2.75;;;;;;;19.73;41.17;100904.94;852537;23;1386;-96
2022/07/29 01:42:57;;;;;;;5.90;2.90;;;;;;;19.67;41.23;100891.75;852400;23;1186;-96
2022/07/29 01:43:23;;;;;;;6.30;3.00;;;;;;;19.72;41.30;100905.81;845621;23;1197;-96
2022/07/29 01:43:52;;;;;;;5.80;2.85;;;;;;;19.67;41.19;100894.38;852551;23;1334;-96
2022/07/29 01:44:28;;;;;;;3.88;2.78;;;;;;;19.73;41.22;100901.41;852394;23;1199;-96
2022/07/29 01:45:07;;;;;;;4.82;2.90;;;;;;;19.77;41.41;100904.91;852458;23;1168;-95
2022/07/29 01:45:51;;;;;;;5.68;2.50;;;;;;;19.80;41.31;100908.41;855580;23;1295;-95
2022/07/29 01:51:30;;;;;;;8.13;2.97;;;;;;;19.85;41.07;100898.66;860491;23;1266;-95
2022/07/29 01:52:13;;;;;;;6.35;2.80;;;;;;;19.76;41.15;100889.91;852161;23;1922;-95
2022/07/29 01:52:42;;;;;;;3.78;2.90;;;;;;;19.81;41.03;100904.00;856423;23;1327;-96
2022/07/29 01:53:12;;;;;;;4.78;3.10;;;;;;;19.84;41.15;100898.66;849355;23;1186;-96
2022/07/29 01:53:43;;;;;;;6.07;2.92;;;;;;;19.80;41.03;100892.50;849232;23;1339;-96
2022/07/29 01:54:42;;;;;;;4.90;2.90;;;;;;;19.85;41.11;100903.06;857242;23;1277;-95
2022/07/29 01:55:10;;;;;;;5.72;2.80;;;;;;;19.78;41.10;100888.16;857172;23;1295;-96
2022/07/29 01:55:42;;;;;;;3.75;2.55;;;;;;;19.79;41.21;100885.47;851805;23;1274;-95
2022/07/29 01:56:08;;;;;;;6.65;3.13;;;;;;;19.80;41.27;100892.50;850489;23;1399;-96
2022/07/29 01:56:33;;;;;;;6.32;3.20;;;;;;;19.80;41.25;100889.84;848656;23;1323;-95
2022/07/29 01:56:57;;;;;;;6.10;3.13;;;;;;;19.76;41.48;100888.16;857296;23;1318;-95
2022/07/29 01:57:23;;;;;;;4.10;2.60;;;;;;;19.81;41.39;100889.00;852905;23;1244;-96
2022/07/29 01:57:50;;;;;;;4.05;2.90;;;;;;;19.76;41.55;100884.59;853217;23;1220;-96
2022/07/29 01:58:13;;;;;;;4.88;3.00;;;;;;;19.79;41.56;100888.09;849044;23;1371;-96
2022/07/29 01:58:36;;;;;;;5.93;3.00;;;;;;;19.76;41.54;100879.31;844913;23;1364;-96
2022/07/29 01:59:00;;;;;;;5.53;2.90;;;;;;;19.80;41.55;100892.50;844882;23;1320;-96
2022/07/29 01:59:25;;;;;;;6.63;2.97;;;;;;;19.75;41.57;100882.84;857254;23;1112;-94
2022/07/29 01:59:48;;;;;;;6.38;2.55;;;;;;;19.79;41.88;100887.25;845017;23;1237;-95
2022/07/29 02:00:26;;;;;;;5.65;2.20;;;;;;;19.78;41.16;100880.19;848691;23;1270;-96
2022/07/29 02:00:49;;;;;;;2.85;2.40;;;;;;;19.79;41.38;100884.59;852681;23;1126;-96
2022/07/29 02:01:12;;;;;;;4.03;2.60;;;;;;;19.74;41.58;100876.69;853111;23;1260;-96
2022/07/29 02:01:37;;;;;;;4.68;2.55;;;;;;;19.80;41.52;100892.50;849256;23;1312;-95
2022/07/29 02:02:00;;;;;;;5.82;2.80;;;;;;;19.71;41.56;100877.59;844941;23;1097;-96
2022/07/29 02:02:23;;;;;;;5.45;2.80;;;;;;;19.80;41.44;100895.16;857276;23;1477;-94
2022/07/29 02:02:49;;;;;;;4.63;2.72;;;;;;;19.70;41.40;100873.19;845099;23;1243;-96
2022/07/29 02:03:12;;;;;;;4.90;2.70;;;;;;;19.76;41.37;100881.97;844893;23;1394;-95
2022/07/29 02:03:38;;;;;;;5.63;2.83;;;;;;;19.74;41.48;100879.34;840866;23;1294;-95
2022/07/29 02:04:03;;;;;;;7.78;3.03;;;;;;;19.80;41.61;100892.50;853026;23;1374;-96
2022/07/29 02:04:29;;;;;;;6.22;3.00;;;;;;;19.71;41.58;100877.59;857543;23;1230;-96
2022/07/29 02:04:56;;;;;;;4.57;2.80;;;;;;;19.76;41.46;100888.16;853217;23;1298;-96
2022/07/29 02:05:20;;;;;;;3.42;2.80;;;;;;;19.70;41.53;100875.84;852883;23;1269;-95
2022/07/29 02:05:44;;;;;;;3.50;2.80;;;;;;;19.68;41.41;100871.44;849034;23;1568;-95
2022/07/29 02:06:10;;;;;;;3.60;3.00;;;;;;;19.68;41.49;100876.75;852906;23;1231;-95
2022/07/29 02:06:33;;;;;;;4.60;3.10;;;;;;;19.70;41.54;100878.50;853041;23;1199;-96
2022/07/29 02:07:00;;;;;;;4.43;2.90;;;;;;;19.72;41.53;100884.66;861334;23;1121;-94
2022/07/29 02:07:23;;;;;;;4.95;2.65;;;;;;;19.66;41.53;100875.88;852980;23;1273;-96
2022/07/29 02:07:46;;;;;;;5.18;2.50;;;;;;;19.67;41.60;100875.00;857090;23;1377;-96
2022/07/29 02:08:09;;;;;;;5.40;2.50;;;;;;;19.65;41.59;100877.66;857083;23;1296;-96
2022/07/29 02:08:33;;;;;;;5.35;2.75;;;;;;;19.64;41.43;100878.53;848907;23;1312;-96
2022/07/29 02:08:58;;;;;;;3.78;2.70;;;;;;;19.63;41.80;100873.25;853063;23;1366;-96
2022/07/29 02:09:24;;;;;;;4.50;2.63;;;;;;;19.65;41.67;100885.59;848806;23;1147;-96
2022/07/29 02:09:47;;;;;;;5.32;2.65;;;;;;;19.61;41.67;100878.53;844923;23;1287;-95
2022/07/29 02:10:10;;;;;;;5.20;2.90;;;;;;;19.62;41.69;100877.69;857095;23;1301;-95
2022/07/29 02:10:33;;;;;;;3.67;2.80;;;;;;;19.65;41.75;100885.59;852900;23;1390;-95
2022/07/29 02:10:59;;;;;;;4.55;2.80;;;;;;;19.59;41.65;100878.59;845012;23;1471;-95
2022/07/29 02:11:20;;;;;;;4.82;2.75;;;;;;;19.68;41.71;100897.94;844775;23;1247;-95
2022/07/29 02:11:51;;;;;;;3.40;2.63;;;;;;;19.57;41.56;100879.47;849164;23;912;-95
2022/07/29 02:12:16;;;;;;;2.80;2.42;;;;;;;19.59;41.68;100882.97;844854;23;1424;-95
2022/07/29 02:12:39;;;;;;;5.45;2.75;;;;;;;19.56;41.84;100875.94;852634;23;1298;-96